sensor_id;sensor_type;location;lat;lon;timestamp;temperature;humidity
80367;DHT22;70058;42.660;23.366;2023-12-28T00:00:30;7.40;62.70
80367;DHT22;70058;42.660;23.366;2023-12-28T00:02:56;7.30;62.80
80367;DHT22;70058;42.660;23.366;2023-12-28T00:05:21;7.40;62.80
80367;DHT22;70058;42.660;23.366;2023-12-28T00:07:47;7.40;62.60
80367;DHT22;70058;42.660;23.366;2023-12-28T00:10:13;7.40;62.60
80367;DHT22;70058;42.660;23.366;2023-12-28T00:12:39;7.30;63.00
80367;DHT22;70058;42.660;23.366;2023-12-28T00:15:04;7.30;62.80
80367;DHT22;70058;42.660;23.366;2023-12-28T00:17:30;7.20;63.00
80367;DHT22;70058;42.660;23.366;2023-12-28T00:19:56;7.20;63.20
80367;DHT22;70058;42.660;23.366;2023-12-28T00:22:22;7.20;63.20
80367;DHT22;70058;42.660;23.366;2023-12-28T00:24:47;7.10;63.20
80367;DHT22;70058;42.660;23.366;2023-12-28T00:27:13;7.10;63.50
80367;DHT22;70058;42.660;23.366;2023-12-28T00:29:39;7.20;63.50
80367;DHT22;70058;42.660;23.366;2023-12-28T00:32:05;7.10;63.30
80367;DHT22;70058;42.660;23.366;2023-12-28T00:34:31;7.20;63.30
80367;DHT22;70058;42.660;23.366;2023-12-28T00:36:57;7.20;63.00
80367;DHT22;70058;42.660;23.366;2023-12-28T00:39:22;7.20;62.90
80367;DHT22;70058;42.660;23.366;2023-12-28T00:41:48;7.20;62.60
80367;DHT22;70058;42.660;23.366;2023-12-28T00:44:14;7.10;63.40
80367;DHT22;70058;42.660;23.366;2023-12-28T00:46:39;7.10;62.90
80367;DHT22;70058;42.660;23.366;2023-12-28T00:49:05;7.10;62.90
80367;DHT22;70058;42.660;23.366;2023-12-28T00:51:31;7.00;62.90
80367;DHT22;70058;42.660;23.366;2023-12-28T00:53:56;7.00;63.30
80367;DHT22;70058;42.660;23.366;2023-12-28T00:56:22;6.90;63.50
80367;DHT22;70058;42.660;23.366;2023-12-28T00:58:48;6.80;64.10
80367;DHT22;70058;42.660;23.366;2023-12-28T01:01:14;6.70;64.50
80367;DHT22;70058;42.660;23.366;2023-12-28T01:03:40;6.80;63.80
80367;DHT22;70058;42.660;23.366;2023-12-28T01:06:06;6.90;63.60
80367;DHT22;70058;42.660;23.366;2023-12-28T01:08:32;6.90;63.50
80367;DHT22;70058;42.660;23.366;2023-12-28T01:10:59;6.80;63.30
80367;DHT22;70058;42.660;23.366;2023-12-28T01:13:25;6.80;63.90
80367;DHT22;70058;42.660;23.366;2023-12-28T01:15:51;6.70;64.10
80367;DHT22;70058;42.660;23.366;2023-12-28T01:18:17;6.70;64.00
80367;DHT22;70058;42.660;23.366;2023-12-28T01:20:42;6.70;64.20
80367;DHT22;70058;42.660;23.366;2023-12-28T01:23:08;6.70;63.90
80367;DHT22;70058;42.660;23.366;2023-12-28T01:25:34;6.80;63.90
80367;DHT22;70058;42.660;23.366;2023-12-28T01:28:01;6.90;63.20
80367;DHT22;70058;42.660;23.366;2023-12-28T01:30:26;6.90;63.00
80367;DHT22;70058;42.660;23.366;2023-12-28T01:32:52;6.80;63.10
80367;DHT22;70058;42.660;23.366;2023-12-28T01:35:18;6.80;63.40
80367;DHT22;70058;42.660;23.366;2023-12-28T01:37:43;6.70;63.50
80367;DHT22;70058;42.660;23.366;2023-12-28T01:40:09;6.70;64.00
80367;DHT22;70058;42.660;23.366;2023-12-28T01:42:35;6.60;63.80
80367;DHT22;70058;42.660;23.366;2023-12-28T01:45:01;6.60;63.60
80367;DHT22;70058;42.660;23.366;2023-12-28T01:47:27;6.60;63.40
80367;DHT22;70058;42.660;23.366;2023-12-28T01:49:54;6.60;64.00
80367;DHT22;70058;42.660;23.366;2023-12-28T01:52:21;6.50;64.10
80367;DHT22;70058;42.660;23.366;2023-12-28T01:54:47;6.40;64.40
80367;DHT22;70058;42.660;23.366;2023-12-28T01:57:13;6.30;64.70
80367;DHT22;70058;42.660;23.366;2023-12-28T01:59:40;6.30;65.00
80367;DHT22;70058;42.660;23.366;2023-12-28T02:02:06;6.30;64.90
80367;DHT22;70058;42.660;23.366;2023-12-28T02:04:32;6.30;65.10
80367;DHT22;70058;42.660;23.366;2023-12-28T02:06:59;6.20;65.00
80367;DHT22;70058;42.660;23.366;2023-12-28T02:09:25;6.30;65.20
80367;DHT22;70058;42.660;23.366;2023-12-28T02:11:52;6.30;64.40
80367;DHT22;70058;42.660;23.366;2023-12-28T02:14:18;6.30;64.70
80367;DHT22;70058;42.660;23.366;2023-12-28T02:22:08;6.20;64.50
80367;DHT22;70058;42.660;23.366;2023-12-28T02:25:14;6.30;64.60
80367;DHT22;70058;42.660;23.366;2023-12-28T02:27:46;6.30;64.40
80367;DHT22;70058;42.660;23.366;2023-12-28T02:30:15;6.30;64.30
80367;DHT22;70058;42.660;23.366;2023-12-28T02:35:57;6.30;63.90
80367;DHT22;70058;42.660;23.366;2023-12-28T02:38:24;6.40;63.70
80367;DHT22;70058;42.660;23.366;2023-12-28T02:40:51;6.30;63.40
80367;DHT22;70058;42.660;23.366;2023-12-28T02:43:17;6.20;63.80
80367;DHT22;70058;42.660;23.366;2023-12-28T02:45:43;6.00;63.80
80367;DHT22;70058;42.660;23.366;2023-12-28T02:48:08;6.00;63.80
80367;DHT22;70058;42.660;23.366;2023-12-28T02:50:35;5.80;64.50
80367;DHT22;70058;42.660;23.366;2023-12-28T02:53:01;5.80;64.70
80367;DHT22;70058;42.660;23.366;2023-12-28T02:55:27;5.80;64.60
80367;DHT22;70058;42.660;23.366;2023-12-28T02:57:56;5.80;64.80
80367;DHT22;70058;42.660;23.366;2023-12-28T03:00:22;5.80;64.70
80367;DHT22;70058;42.660;23.366;2023-12-28T03:02:47;5.70;64.30
80367;DHT22;70058;42.660;23.366;2023-12-28T03:05:13;5.70;64.50
80367;DHT22;70058;42.660;23.366;2023-12-28T03:07:39;5.70;64.40
80367;DHT22;70058;42.660;23.366;2023-12-28T03:10:06;5.70;64.10
80367;DHT22;70058;42.660;23.366;2023-12-28T03:12:32;5.80;64.00
80367;DHT22;70058;42.660;23.366;2023-12-28T03:14:58;5.70;63.70
80367;DHT22;70058;42.660;23.366;2023-12-28T03:17:23;5.50;64.50
80367;DHT22;70058;42.660;23.366;2023-12-28T03:19:49;5.50;64.80
80367;DHT22;70058;42.660;23.366;2023-12-28T03:22:15;5.50;64.50
80367;DHT22;70058;42.660;23.366;2023-12-28T03:24:41;5.60;64.10
80367;DHT22;70058;42.660;23.366;2023-12-28T03:27:06;5.50;64.60
80367;DHT22;70058;42.660;23.366;2023-12-28T03:29:33;5.50;64.90
80367;DHT22;70058;42.660;23.366;2023-12-28T03:31:58;5.50;64.90
80367;DHT22;70058;42.660;23.366;2023-12-28T03:34:25;5.60;65.60
80367;DHT22;70058;42.660;23.366;2023-12-28T03:36:52;5.50;64.40
80367;DHT22;70058;42.660;23.366;2023-12-28T03:39:18;5.60;63.90
80367;DHT22;70058;42.660;23.366;2023-12-28T03:41:44;5.40;64.90
80367;DHT22;70058;42.660;23.366;2023-12-28T03:44:10;5.40;65.10
80367;DHT22;70058;42.660;23.366;2023-12-28T03:46:35;5.40;65.20
80367;DHT22;70058;42.660;23.366;2023-12-28T03:49:01;5.50;64.30
80367;DHT22;70058;42.660;23.366;2023-12-28T03:51:27;5.50;64.30
80367;DHT22;70058;42.660;23.366;2023-12-28T03:53:52;5.50;64.50
80367;DHT22;70058;42.660;23.366;2023-12-28T03:56:23;5.50;65.10
80367;DHT22;70058;42.660;23.366;2023-12-28T03:58:49;5.50;64.80
80367;DHT22;70058;42.660;23.366;2023-12-28T04:01:17;5.40;64.80
80367;DHT22;70058;42.660;23.366;2023-12-28T04:03:43;5.40;64.60
80367;DHT22;70058;42.660;23.366;2023-12-28T04:06:09;5.30;65.00
80367;DHT22;70058;42.660;23.366;2023-12-28T04:08:34;5.40;65.30
80367;DHT22;70058;42.660;23.366;2023-12-28T04:11:00;5.40;65.40
80367;DHT22;70058;42.660;23.366;2023-12-28T04:13:26;5.40;64.70
80367;DHT22;70058;42.660;23.366;2023-12-28T04:15:51;5.60;64.50
80367;DHT22;70058;42.660;23.366;2023-12-28T04:18:17;5.70;64.00
80367;DHT22;70058;42.660;23.366;2023-12-28T04:20:43;5.60;64.20
80367;DHT22;70058;42.660;23.366;2023-12-28T04:23:10;5.60;64.60
80367;DHT22;70058;42.660;23.366;2023-12-28T04:25:36;5.60;64.30
80367;DHT22;70058;42.660;23.366;2023-12-28T04:28:02;5.70;64.20
80367;DHT22;70058;42.660;23.366;2023-12-28T04:30:28;5.70;63.80
80367;DHT22;70058;42.660;23.366;2023-12-28T04:32:53;5.60;63.90
80367;DHT22;70058;42.660;23.366;2023-12-28T04:35:19;5.50;65.00
80367;DHT22;70058;42.660;23.366;2023-12-28T04:37:45;5.40;64.40
80367;DHT22;70058;42.660;23.366;2023-12-28T04:40:11;5.30;64.80
80367;DHT22;70058;42.660;23.366;2023-12-28T04:42:39;5.30;65.30
80367;DHT22;70058;42.660;23.366;2023-12-28T04:45:06;5.40;65.10
80367;DHT22;70058;42.660;23.366;2023-12-28T04:47:31;5.30;65.10
80367;DHT22;70058;42.660;23.366;2023-12-28T04:49:57;5.30;65.20
80367;DHT22;70058;42.660;23.366;2023-12-28T04:52:23;5.40;65.00
80367;DHT22;70058;42.660;23.366;2023-12-28T04:54:48;5.40;65.10
80367;DHT22;70058;42.660;23.366;2023-12-28T04:57:14;5.40;64.90
80367;DHT22;70058;42.660;23.366;2023-12-28T04:59:40;5.50;64.60
80367;DHT22;70058;42.660;23.366;2023-12-28T05:02:06;5.40;64.50
80367;DHT22;70058;42.660;23.366;2023-12-28T05:04:32;5.40;64.40
80367;DHT22;70058;42.660;23.366;2023-12-28T05:06:58;5.40;64.50
80367;DHT22;70058;42.660;23.366;2023-12-28T05:09:24;5.20;65.20
80367;DHT22;70058;42.660;23.366;2023-12-28T05:11:49;5.20;65.40
80367;DHT22;70058;42.660;23.366;2023-12-28T05:14:15;5.20;65.70
80367;DHT22;70058;42.660;23.366;2023-12-28T05:16:41;5.20;65.50
80367;DHT22;70058;42.660;23.366;2023-12-28T05:19:06;5.20;65.70
80367;DHT22;70058;42.660;23.366;2023-12-28T05:21:32;5.30;65.00
80367;DHT22;70058;42.660;23.366;2023-12-28T05:23:58;5.30;64.70
80367;DHT22;70058;42.660;23.366;2023-12-28T05:26:23;5.30;64.90
80367;DHT22;70058;42.660;23.366;2023-12-28T05:28:49;5.30;65.20
80367;DHT22;70058;42.660;23.366;2023-12-28T05:31:15;5.30;65.30
80367;DHT22;70058;42.660;23.366;2023-12-28T05:33:41;5.10;65.70
80367;DHT22;70058;42.660;23.366;2023-12-28T05:36:07;5.10;65.80
80367;DHT22;70058;42.660;23.366;2023-12-28T05:38:32;5.20;65.30
80367;DHT22;70058;42.660;23.366;2023-12-28T05:40:59;5.30;64.90
80367;DHT22;70058;42.660;23.366;2023-12-28T05:43:25;5.20;65.00
80367;DHT22;70058;42.660;23.366;2023-12-28T05:45:50;5.10;65.20
80367;DHT22;70058;42.660;23.366;2023-12-28T05:48:16;5.00;65.40
80367;DHT22;70058;42.660;23.366;2023-12-28T05:50:42;4.90;65.40
80367;DHT22;70058;42.660;23.366;2023-12-28T05:53:07;5.10;65.30
80367;DHT22;70058;42.660;23.366;2023-12-28T05:55:41;5.20;64.60
80367;DHT22;70058;42.660;23.366;2023-12-28T05:58:07;5.30;64.70
80367;DHT22;70058;42.660;23.366;2023-12-28T06:00:33;5.10;64.80
80367;DHT22;70058;42.660;23.366;2023-12-28T06:02:58;5.00;65.40
80367;DHT22;70058;42.660;23.366;2023-12-28T06:05:26;5.20;65.20
80367;DHT22;70058;42.660;23.366;2023-12-28T06:07:52;5.30;64.60
80367;DHT22;70058;42.660;23.366;2023-12-28T06:10:17;5.30;64.20
80367;DHT22;70058;42.660;23.366;2023-12-28T06:12:43;5.30;64.00
80367;DHT22;70058;42.660;23.366;2023-12-28T06:15:09;5.10;64.50
80367;DHT22;70058;42.660;23.366;2023-12-28T06:17:35;5.10;64.70
80367;DHT22;70058;42.660;23.366;2023-12-28T06:20:00;5.00;65.40
80367;DHT22;70058;42.660;23.366;2023-12-28T06:22:26;5.00;65.30
80367;DHT22;70058;42.660;23.366;2023-12-28T06:24:54;5.00;65.40
80367;DHT22;70058;42.660;23.366;2023-12-28T06:27:20;4.90;65.50
80367;DHT22;70058;42.660;23.366;2023-12-28T06:29:46;4.90;65.70
80367;DHT22;70058;42.660;23.366;2023-12-28T06:32:11;5.00;65.60
80367;DHT22;70058;42.660;23.366;2023-12-28T06:34:37;5.00;65.40
80367;DHT22;70058;42.660;23.366;2023-12-28T06:37:03;5.00;65.70
80367;DHT22;70058;42.660;23.366;2023-12-28T06:39:29;5.00;65.80
80367;DHT22;70058;42.660;23.366;2023-12-28T06:41:54;5.00;65.90
80367;DHT22;70058;42.660;23.366;2023-12-28T06:44:20;5.10;65.90
80367;DHT22;70058;42.660;23.366;2023-12-28T06:46:46;5.30;65.40
80367;DHT22;70058;42.660;23.366;2023-12-28T06:49:11;5.30;65.10
80367;DHT22;70058;42.660;23.366;2023-12-28T06:51:37;5.30;65.10
80367;DHT22;70058;42.660;23.366;2023-12-28T06:54:03;5.50;64.80
80367;DHT22;70058;42.660;23.366;2023-12-28T06:56:29;5.50;64.20
80367;DHT22;70058;42.660;23.366;2023-12-28T06:58:54;5.50;63.90
80367;DHT22;70058;42.660;23.366;2023-12-28T07:01:20;5.50;64.00
80367;DHT22;70058;42.660;23.366;2023-12-28T07:03:45;5.50;64.50
80367;DHT22;70058;42.660;23.366;2023-12-28T07:06:13;5.50;64.00
80367;DHT22;70058;42.660;23.366;2023-12-28T07:08:39;5.60;64.20
80367;DHT22;70058;42.660;23.366;2023-12-28T07:11:05;5.60;64.10
80367;DHT22;70058;42.660;23.366;2023-12-28T07:13:30;5.60;64.40
80367;DHT22;70058;42.660;23.366;2023-12-28T07:15:56;5.80;64.90
80367;DHT22;70058;42.660;23.366;2023-12-28T07:18:22;5.80;64.40
80367;DHT22;70058;42.660;23.366;2023-12-28T07:20:48;6.00;63.50
80367;DHT22;70058;42.660;23.366;2023-12-28T07:23:14;6.10;63.20
80367;DHT22;70058;42.660;23.366;2023-12-28T07:25:40;6.10;63.10
80367;DHT22;70058;42.660;23.366;2023-12-28T07:28:06;6.20;63.20
80367;DHT22;70058;42.660;23.366;2023-12-28T07:30:32;6.20;62.80
80367;DHT22;70058;42.660;23.366;2023-12-28T07:32:57;6.20;62.70
80367;DHT22;70058;42.660;23.366;2023-12-28T07:35:23;6.20;63.50
80367;DHT22;70058;42.660;23.366;2023-12-28T07:37:48;6.30;62.70
80367;DHT22;70058;42.660;23.366;2023-12-28T07:40:15;6.30;62.50
80367;DHT22;70058;42.660;23.366;2023-12-28T07:42:41;6.30;62.20
80367;DHT22;70058;42.660;23.366;2023-12-28T07:45:06;6.30;62.40
80367;DHT22;70058;42.660;23.366;2023-12-28T07:47:32;6.40;62.20
80367;DHT22;70058;42.660;23.366;2023-12-28T07:49:59;6.30;62.00
80367;DHT22;70058;42.660;23.366;2023-12-28T07:52:26;6.40;62.80
80367;DHT22;70058;42.660;23.366;2023-12-28T07:54:52;6.50;62.20
80367;DHT22;70058;42.660;23.366;2023-12-28T07:57:18;6.60;61.70
80367;DHT22;70058;42.660;23.366;2023-12-28T07:59:43;6.70;61.60
80367;DHT22;70058;42.660;23.366;2023-12-28T08:02:09;6.80;61.50
80367;DHT22;70058;42.660;23.366;2023-12-28T08:04:35;6.80;60.80
80367;DHT22;70058;42.660;23.366;2023-12-28T08:07:00;6.80;60.80
80367;DHT22;70058;42.660;23.366;2023-12-28T08:09:26;6.90;60.60
80367;DHT22;70058;42.660;23.366;2023-12-28T08:11:52;6.90;60.50
80367;DHT22;70058;42.660;23.366;2023-12-28T08:14:18;7.10;60.30
80367;DHT22;70058;42.660;23.366;2023-12-28T08:16:44;7.10;59.80
80367;DHT22;70058;42.660;23.366;2023-12-28T08:19:11;7.20;59.80
80367;DHT22;70058;42.660;23.366;2023-12-28T08:21:36;7.20;59.80
80367;DHT22;70058;42.660;23.366;2023-12-28T08:24:02;7.20;60.40
80367;DHT22;70058;42.660;23.366;2023-12-28T08:26:28;7.40;60.00
80367;DHT22;70058;42.660;23.366;2023-12-28T08:28:54;7.50;59.60
80367;DHT22;70058;42.660;23.366;2023-12-28T08:31:19;7.60;59.30
80367;DHT22;70058;42.660;23.366;2023-12-28T08:33:45;7.70;58.90
80367;DHT22;70058;42.660;23.366;2023-12-28T08:36:11;7.70;58.50
80367;DHT22;70058;42.660;23.366;2023-12-28T08:38:37;7.80;58.40
80367;DHT22;70058;42.660;23.366;2023-12-28T08:41:03;7.70;58.60
80367;DHT22;70058;42.660;23.366;2023-12-28T08:43:34;7.80;58.50
80367;DHT22;70058;42.660;23.366;2023-12-28T08:46:00;7.90;58.40
80367;DHT22;70058;42.660;23.366;2023-12-28T08:48:26;8.00;58.20
80367;DHT22;70058;42.660;23.366;2023-12-28T08:50:51;8.10;57.90
80367;DHT22;70058;42.660;23.366;2023-12-28T08:53:17;7.80;58.30
80367;DHT22;70058;42.660;23.366;2023-12-28T08:55:43;7.90;58.30
80367;DHT22;70058;42.660;23.366;2023-12-28T08:58:08;8.00;57.90
80367;DHT22;70058;42.660;23.366;2023-12-28T09:00:34;8.20;57.70
80367;DHT22;70058;42.660;23.366;2023-12-28T09:02:59;8.30;57.40
80367;DHT22;70058;42.660;23.366;2023-12-28T09:05:25;8.20;57.10
80367;DHT22;70058;42.660;23.366;2023-12-28T09:07:51;8.30;56.90
80367;DHT22;70058;42.660;23.366;2023-12-28T09:10:16;8.30;56.90
80367;DHT22;70058;42.660;23.366;2023-12-28T09:12:42;8.40;56.90
80367;DHT22;70058;42.660;23.366;2023-12-28T09:15:08;8.50;56.20
80367;DHT22;70058;42.660;23.366;2023-12-28T09:17:34;8.50;57.00
80367;DHT22;70058;42.660;23.366;2023-12-28T09:20:00;8.40;56.30
80367;DHT22;70058;42.660;23.366;2023-12-28T09:22:29;8.30;56.30
80367;DHT22;70058;42.660;23.366;2023-12-28T09:24:55;8.50;56.70
80367;DHT22;70058;42.660;23.366;2023-12-28T09:27:21;8.70;56.30
80367;DHT22;70058;42.660;23.366;2023-12-28T09:29:46;8.80;55.70
80367;DHT22;70058;42.660;23.366;2023-12-28T09:32:12;8.90;55.30
80367;DHT22;70058;42.660;23.366;2023-12-28T09:34:38;8.90;55.20
80367;DHT22;70058;42.660;23.366;2023-12-28T09:37:05;8.90;55.40
80367;DHT22;70058;42.660;23.366;2023-12-28T09:39:31;8.90;55.10
80367;DHT22;70058;42.660;23.366;2023-12-28T09:42:02;9.00;55.10
80367;DHT22;70058;42.660;23.366;2023-12-28T09:44:30;9.10;54.90
80367;DHT22;70058;42.660;23.366;2023-12-28T09:46:56;9.00;54.80
80367;DHT22;70058;42.660;23.366;2023-12-28T09:49:23;9.10;54.80
80367;DHT22;70058;42.660;23.366;2023-12-28T09:51:49;9.20;54.30
80367;DHT22;70058;42.660;23.366;2023-12-28T09:54:15;9.20;54.50
80367;DHT22;70058;42.660;23.366;2023-12-28T09:56:41;9.10;55.40
80367;DHT22;70058;42.660;23.366;2023-12-28T09:59:07;9.00;54.70
80367;DHT22;70058;42.660;23.366;2023-12-28T10:01:34;8.90;55.00
80367;DHT22;70058;42.660;23.366;2023-12-28T10:04:00;9.00;55.20
80367;DHT22;70058;42.660;23.366;2023-12-28T10:06:28;8.90;55.10
80367;DHT22;70058;42.660;23.366;2023-12-28T10:08:54;9.00;55.30
80367;DHT22;70058;42.660;23.366;2023-12-28T10:11:21;9.10;55.40
80367;DHT22;70058;42.660;23.366;2023-12-28T10:13:49;9.20;55.20
80367;DHT22;70058;42.660;23.366;2023-12-28T10:16:15;9.30;54.60
80367;DHT22;70058;42.660;23.366;2023-12-28T10:18:42;9.30;54.50
80367;DHT22;70058;42.660;23.366;2023-12-28T10:21:08;9.30;54.70
80367;DHT22;70058;42.660;23.366;2023-12-28T10:23:34;9.30;54.40
80367;DHT22;70058;42.660;23.366;2023-12-28T10:26:00;9.20;54.80
80367;DHT22;70058;42.660;23.366;2023-12-28T10:28:26;9.30;54.80
80367;DHT22;70058;42.660;23.366;2023-12-28T10:30:55;9.10;54.40
80367;DHT22;70058;42.660;23.366;2023-12-28T10:33:22;9.10;55.00
80367;DHT22;70058;42.660;23.366;2023-12-28T10:35:50;8.90;55.10
80367;DHT22;70058;42.660;23.366;2023-12-28T10:38:16;9.20;55.00
80367;DHT22;70058;42.660;23.366;2023-12-28T10:40:44;9.20;55.00
80367;DHT22;70058;42.660;23.366;2023-12-28T10:43:11;9.30;54.90
80367;DHT22;70058;42.660;23.366;2023-12-28T10:45:39;9.40;54.70
80367;DHT22;70058;42.660;23.366;2023-12-28T10:48:10;9.10;54.70
80367;DHT22;70058;42.660;23.366;2023-12-28T10:50:40;8.30;57.30
80367;DHT22;70058;42.660;23.366;2023-12-28T11:01:31;9.20;56.80
80367;DHT22;70058;42.660;23.366;2023-12-28T11:06:42;9.60;55.40
80367;DHT22;70058;42.660;23.366;2023-12-28T11:09:10;9.80;55.20
80367;DHT22;70058;42.660;23.366;2023-12-28T11:11:37;9.90;54.70
80367;DHT22;70058;42.660;23.366;2023-12-28T11:14:03;10.00;54.50
80367;DHT22;70058;42.660;23.366;2023-12-28T11:16:30;10.00;54.50
80367;DHT22;70058;42.660;23.366;2023-12-28T11:18:58;9.80;54.50
80367;DHT22;70058;42.660;23.366;2023-12-28T11:21:24;9.70;55.20
80367;DHT22;70058;42.660;23.366;2023-12-28T11:23:51;9.80;55.00
80367;DHT22;70058;42.660;23.366;2023-12-28T11:26:18;9.90;54.70
80367;DHT22;70058;42.660;23.366;2023-12-28T11:28:44;9.90;54.40
80367;DHT22;70058;42.660;23.366;2023-12-28T11:31:18;10.10;54.40
80367;DHT22;70058;42.660;23.366;2023-12-28T11:33:50;10.30;54.30
80367;DHT22;70058;42.660;23.366;2023-12-28T11:36:25;10.40;54.10
80367;DHT22;70058;42.660;23.366;2023-12-28T11:38:58;10.40;53.80
80367;DHT22;70058;42.660;23.366;2023-12-28T11:41:25;10.50;53.70
80367;DHT22;70058;42.660;23.366;2023-12-28T11:43:55;10.50;53.30
80367;DHT22;70058;42.660;23.366;2023-12-28T11:46:22;10.50;53.30
80367;DHT22;70058;42.660;23.366;2023-12-28T11:48:48;10.50;53.40
80367;DHT22;70058;42.660;23.366;2023-12-28T11:51:13;10.60;53.40
80367;DHT22;70058;42.660;23.366;2023-12-28T11:53:40;10.60;53.20
80367;DHT22;70058;42.660;23.366;2023-12-28T11:56:07;10.80;53.30
80367;DHT22;70058;42.660;23.366;2023-12-28T11:58:35;10.80;52.70
80367;DHT22;70058;42.660;23.366;2023-12-28T12:01:02;10.90;52.50
80367;DHT22;70058;42.660;23.366;2023-12-28T12:03:28;10.90;52.50
80367;DHT22;70058;42.660;23.366;2023-12-28T12:05:57;10.80;52.20
80367;DHT22;70058;42.660;23.366;2023-12-28T12:08:23;10.70;52.50
80367;DHT22;70058;42.660;23.366;2023-12-28T12:11:00;10.40;53.20
80367;DHT22;70058;42.660;23.366;2023-12-28T12:13:27;10.40;53.50
80367;DHT22;70058;42.660;23.366;2023-12-28T12:15:53;10.40;53.80
80367;DHT22;70058;42.660;23.366;2023-12-28T12:18:18;10.60;53.50
80367;DHT22;70058;42.660;23.366;2023-12-28T12:20:44;10.80;53.00
80367;DHT22;70058;42.660;23.366;2023-12-28T12:23:10;10.90;52.50
80367;DHT22;70058;42.660;23.366;2023-12-28T12:25:38;11.00;52.20
80367;DHT22;70058;42.660;23.366;2023-12-28T12:28:04;11.10;52.10
80367;DHT22;70058;42.660;23.366;2023-12-28T12:30:30;11.20;52.30
80367;DHT22;70058;42.660;23.366;2023-12-28T12:32:55;11.00;52.30
80367;DHT22;70058;42.660;23.366;2023-12-28T12:35:21;10.90;52.80
80367;DHT22;70058;42.660;23.366;2023-12-28T12:37:47;11.00;52.90
80367;DHT22;70058;42.660;23.366;2023-12-28T12:40:14;11.10;52.80
80367;DHT22;70058;42.660;23.366;2023-12-28T12:42:41;11.10;52.40
80367;DHT22;70058;42.660;23.366;2023-12-28T12:45:08;11.20;52.20
80367;DHT22;70058;42.660;23.366;2023-12-28T12:47:34;11.30;52.30
80367;DHT22;70058;42.660;23.366;2023-12-28T12:50:00;11.30;51.80
80367;DHT22;70058;42.660;23.366;2023-12-28T12:52:26;11.30;51.70
80367;DHT22;70058;42.660;23.366;2023-12-28T12:54:57;11.30;51.50
80367;DHT22;70058;42.660;23.366;2023-12-28T12:57:25;11.30;51.60
80367;DHT22;70058;42.660;23.366;2023-12-28T12:59:54;11.40;51.50
80367;DHT22;70058;42.660;23.366;2023-12-28T13:02:22;11.20;51.70
80367;DHT22;70058;42.660;23.366;2023-12-28T13:04:51;11.30;51.70
80367;DHT22;70058;42.660;23.366;2023-12-28T13:07:17;11.30;51.70
80367;DHT22;70058;42.660;23.366;2023-12-28T13:09:43;11.40;51.70
80367;DHT22;70058;42.660;23.366;2023-12-28T13:12:08;11.40;51.80
80367;DHT22;70058;42.660;23.366;2023-12-28T13:14:34;11.40;51.50
80367;DHT22;70058;42.660;23.366;2023-12-28T13:17:00;11.40;51.10
80367;DHT22;70058;42.660;23.366;2023-12-28T13:19:26;11.30;51.00
80367;DHT22;70058;42.660;23.366;2023-12-28T13:21:52;11.40;51.10
80367;DHT22;70058;42.660;23.366;2023-12-28T13:24:18;11.30;51.00
80367;DHT22;70058;42.660;23.366;2023-12-28T13:26:44;10.80;52.20
80367;DHT22;70058;42.660;23.366;2023-12-28T13:29:09;10.80;52.80
80367;DHT22;70058;42.660;23.366;2023-12-28T13:31:35;10.90;52.60
80367;DHT22;70058;42.660;23.366;2023-12-28T13:34:01;10.90;52.30
80367;DHT22;70058;42.660;23.366;2023-12-28T13:36:26;11.00;52.50
80367;DHT22;70058;42.660;23.366;2023-12-28T13:38:53;11.10;51.90
80367;DHT22;70058;42.660;23.366;2023-12-28T13:41:19;11.10;51.60
80367;DHT22;70058;42.660;23.366;2023-12-28T13:43:45;11.00;51.40
80367;DHT22;70058;42.660;23.366;2023-12-28T13:46:10;11.00;51.70
80367;DHT22;70058;42.660;23.366;2023-12-28T13:48:36;10.90;51.80
80367;DHT22;70058;42.660;23.366;2023-12-28T13:51:05;11.00;51.40
80367;DHT22;70058;42.660;23.366;2023-12-28T13:53:31;11.10;50.90
80367;DHT22;70058;42.660;23.366;2023-12-28T13:56:01;11.20;50.60
80367;DHT22;70058;42.660;23.366;2023-12-28T13:58:26;11.30;50.40
80367;DHT22;70058;42.660;23.366;2023-12-28T14:00:52;11.40;50.20
80367;DHT22;70058;42.660;23.366;2023-12-28T14:03:18;11.40;50.10
80367;DHT22;70058;42.660;23.366;2023-12-28T14:05:44;11.40;50.30
80367;DHT22;70058;42.660;23.366;2023-12-28T14:08:10;11.30;50.30
80367;DHT22;70058;42.660;23.366;2023-12-28T14:10:36;11.30;50.80
80367;DHT22;70058;42.660;23.366;2023-12-28T14:13:04;11.30;50.40
80367;DHT22;70058;42.660;23.366;2023-12-28T14:15:31;11.20;50.50
80367;DHT22;70058;42.660;23.366;2023-12-28T14:17:56;11.10;50.80
80367;DHT22;70058;42.660;23.366;2023-12-28T14:20:22;11.20;50.70
80367;DHT22;70058;42.660;23.366;2023-12-28T14:22:48;11.20;50.80
80367;DHT22;70058;42.660;23.366;2023-12-28T14:25:15;11.20;50.80
80367;DHT22;70058;42.660;23.366;2023-12-28T14:27:41;11.10;50.80
80367;DHT22;70058;42.660;23.366;2023-12-28T14:30:08;11.10;51.00
80367;DHT22;70058;42.660;23.366;2023-12-28T14:32:35;11.00;51.20
80367;DHT22;70058;42.660;23.366;2023-12-28T14:35:01;11.00;51.10
80367;DHT22;70058;42.660;23.366;2023-12-28T14:37:27;11.00;51.20
80367;DHT22;70058;42.660;23.366;2023-12-28T14:39:53;11.00;51.20
80367;DHT22;70058;42.660;23.366;2023-12-28T14:42:18;11.10;51.20
80367;DHT22;70058;42.660;23.366;2023-12-28T14:44:44;11.10;51.20
80367;DHT22;70058;42.660;23.366;2023-12-28T14:47:10;11.10;51.40
80367;DHT22;70058;42.660;23.366;2023-12-28T14:49:35;11.00;51.30
80367;DHT22;70058;42.660;23.366;2023-12-28T14:52:01;11.00;51.60
80367;DHT22;70058;42.660;23.366;2023-12-28T14:54:27;11.00;52.10
80367;DHT22;70058;42.660;23.366;2023-12-28T14:56:52;10.90;52.80
80367;DHT22;70058;42.660;23.366;2023-12-28T14:59:18;10.80;52.50
80367;DHT22;70058;42.660;23.366;2023-12-28T15:01:43;10.80;53.00
80367;DHT22;70058;42.660;23.366;2023-12-28T15:04:09;10.80;53.70
80367;DHT22;70058;42.660;23.366;2023-12-28T15:06:35;10.70;54.00
80367;DHT22;70058;42.660;23.366;2023-12-28T15:09:01;10.60;53.80
80367;DHT22;70058;42.660;23.366;2023-12-28T15:11:27;10.50;53.50
80367;DHT22;70058;42.660;23.366;2023-12-28T15:13:53;10.50;53.80
80367;DHT22;70058;42.660;23.366;2023-12-28T15:16:20;10.40;54.10
80367;DHT22;70058;42.660;23.366;2023-12-28T15:18:45;10.40;53.80
80367;DHT22;70058;42.660;23.366;2023-12-28T15:21:11;10.40;54.20
80367;DHT22;70058;42.660;23.366;2023-12-28T15:23:38;10.40;54.20
80367;DHT22;70058;42.660;23.366;2023-12-28T15:26:03;10.30;54.40
80367;DHT22;70058;42.660;23.366;2023-12-28T15:28:29;10.30;54.70
80367;DHT22;70058;42.660;23.366;2023-12-28T15:30:55;10.30;55.50
80367;DHT22;70058;42.660;23.366;2023-12-28T15:33:20;10.20;55.70
80367;DHT22;70058;42.660;23.366;2023-12-28T15:35:47;10.20;55.70
80367;DHT22;70058;42.660;23.366;2023-12-28T15:38:13;10.10;56.20
80367;DHT22;70058;42.660;23.366;2023-12-28T15:40:41;10.10;56.00